Terminal Aerodrome Forecast
Issued by NWS Dodge City, KS

Home | Current Version | Previous Version | Graphics & Text | Print | Product List | Glossary Off
Versions: 1 2 3 4 5 6 7 8 9 10 11 12 13 14 15 16 17 18 19 20

000
FTUS43 KDDC 180220 AAB
TAFDDC
TAF AMD
KDDC 180220Z 1802/1824 32030G50KT P6SM FEW250 WS020/30060KT
      TEMPO 1802/1804 3SM BLDU
     FM180600 33025G35KT P6SM SKC=

USA.gov is the U.S. government's official web portal to all federal, state and local government web resources and services.